sensor_id;sensor_type;location;lat;lon;timestamp;pressure;altitude;pressure_sealevel;temperature;humidity
42511;BME280;28141;51.120;17.114;2022-11-21T00:00:43;100817.30;;;22.67;23.56
42511;BME280;28141;51.120;17.114;2022-11-21T00:04:14;100829.62;;;22.71;23.72
42511;BME280;28141;51.120;17.114;2022-11-21T00:07:17;100820.91;;;22.67;23.58
42511;BME280;28141;51.120;17.114;2022-11-21T00:10:21;100814.10;;;22.70;23.77
42511;BME280;28141;51.120;17.114;2022-11-21T00:13:25;100814.77;;;22.65;23.88
42511;BME280;28141;51.120;17.114;2022-11-21T00:16:28;100815.20;;;22.62;23.84
42511;BME280;28141;51.120;17.114;2022-11-21T00:19:32;100803.50;;;22.67;23.75
42511;BME280;28141;51.120;17.114;2022-11-21T00:22:35;100799.45;;;22.69;23.74
42511;BME280;28141;51.120;17.114;2022-11-21T00:25:39;100804.50;;;22.79;23.60
42511;BME280;28141;51.120;17.114;2022-11-21T00:28:42;100803.05;;;22.70;23.70
42511;BME280;28141;51.120;17.114;2022-11-21T00:31:46;100794.94;;;22.81;23.40
42511;BME280;28141;51.120;17.114;2022-11-21T00:34:49;100792.16;;;22.81;23.51
42511;BME280;28141;51.120;17.114;2022-11-21T00:38:18;100799.41;;;22.76;23.47
42511;BME280;28141;51.120;17.114;2022-11-21T00:41:21;100794.07;;;22.81;23.57
42511;BME280;28141;51.120;17.114;2022-11-21T00:44:24;100798.76;;;22.74;23.23
42511;BME280;28141;51.120;17.114;2022-11-21T00:47:28;100794.58;;;22.65;23.56
42511;BME280;28141;51.120;17.114;2022-11-21T00:50:34;100782.55;;;22.59;23.68
42511;BME280;28141;51.120;17.114;2022-11-21T00:53:37;100786.48;;;22.70;23.49
42511;BME280;28141;51.120;17.114;2022-11-21T00:56:40;100788.56;;;22.74;23.47
42511;BME280;28141;51.120;17.114;2022-11-21T00:59:44;100780.27;;;22.74;23.30
42511;BME280;28141;51.120;17.114;2022-11-21T01:02:47;100785.42;;;22.71;23.56
42511;BME280;28141;51.120;17.114;2022-11-21T01:05:50;100783.73;;;22.70;23.43
42511;BME280;28141;51.120;17.114;2022-11-21T01:08:54;100773.91;;;22.74;23.66
42511;BME280;28141;51.120;17.114;2022-11-21T01:12:23;100763.77;;;22.68;23.56
42511;BME280;28141;51.120;17.114;2022-11-21T01:15:27;100750.63;;;22.63;23.63
42511;BME280;28141;51.120;17.114;2022-11-21T01:18:30;100733.41;;;22.68;23.42
42511;BME280;28141;51.120;17.114;2022-11-21T01:21:33;100727.88;;;22.68;23.77
42511;BME280;28141;51.120;17.114;2022-11-21T01:24:37;100739.29;;;22.78;23.70
42511;BME280;28141;51.120;17.114;2022-11-21T01:27:40;100735.90;;;22.76;23.56
42511;BME280;28141;51.120;17.114;2022-11-21T01:30:43;100728.28;;;22.71;23.59
42511;BME280;28141;51.120;17.114;2022-11-21T01:33:47;100728.03;;;22.73;23.75
42511;BME280;28141;51.120;17.114;2022-11-21T01:36:51;100733.98;;;22.76;23.71
42511;BME280;28141;51.120;17.114;2022-11-21T01:39:54;100736.09;;;22.81;23.60
42511;BME280;28141;51.120;17.114;2022-11-21T01:43:01;100726.33;;;22.78;23.66
42511;BME280;28141;51.120;17.114;2022-11-21T01:46:33;100723.97;;;22.82;23.58
42511;BME280;28141;51.120;17.114;2022-11-21T01:49:36;100720.10;;;22.83;23.31
42511;BME280;28141;51.120;17.114;2022-11-21T01:52:41;100711.23;;;22.81;23.29
42511;BME280;28141;51.120;17.114;2022-11-21T01:55:44;100710.48;;;22.92;23.55
42511;BME280;28141;51.120;17.114;2022-11-21T01:58:49;100704.87;;;22.99;23.47
42511;BME280;28141;51.120;17.114;2022-11-21T02:01:54;100705.72;;;22.99;23.64
42511;BME280;28141;51.120;17.114;2022-11-21T02:05:00;100706.56;;;23.00;23.25
42511;BME280;28141;51.120;17.114;2022-11-21T02:08:12;100693.20;;;22.97;23.61
42511;BME280;28141;51.120;17.114;2022-11-21T02:11:49;100688.21;;;23.05;23.45
42511;BME280;28141;51.120;17.114;2022-11-21T02:14:54;100686.99;;;23.01;23.67
42511;BME280;28141;51.120;17.114;2022-11-21T02:17:59;100686.52;;;23.04;23.46
42511;BME280;28141;51.120;17.114;2022-11-21T02:21:12;100679.69;;;23.07;23.59
42511;BME280;28141;51.120;17.114;2022-11-21T02:24:29;100678.40;;;23.09;23.43
42511;BME280;28141;51.120;17.114;2022-11-21T02:27:31;100674.12;;;23.13;23.37
42511;BME280;28141;51.120;17.114;2022-11-21T02:30:37;100674.41;;;23.23;23.38
42511;BME280;28141;51.120;17.114;2022-11-21T02:34:06;100670.58;;;23.24;23.31
42511;BME280;28141;51.120;17.114;2022-11-21T02:37:09;100664.55;;;23.27;23.63
42511;BME280;28141;51.120;17.114;2022-11-21T02:40:24;100666.20;;;23.35;23.25
42511;BME280;28141;51.120;17.114;2022-11-21T02:43:35;100649.22;;;23.32;22.97
42511;BME280;28141;51.120;17.114;2022-11-21T02:46:46;100642.90;;;23.43;23.21
42511;BME280;28141;51.120;17.114;2022-11-21T02:53:34;100622.81;;;23.36;23.22
42511;BME280;28141;51.120;17.114;2022-11-21T02:56:38;100629.92;;;23.43;23.11
42511;BME280;28141;51.120;17.114;2022-11-21T02:59:41;100630.26;;;23.35;23.16
42511;BME280;28141;51.120;17.114;2022-11-21T03:02:44;100626.55;;;23.41;23.25
42511;BME280;28141;51.120;17.114;2022-11-21T03:05:48;100624.16;;;23.45;23.20
42511;BME280;28141;51.120;17.114;2022-11-21T03:08:51;100619.84;;;23.49;23.36
42511;BME280;28141;51.120;17.114;2022-11-21T03:11:55;100602.41;;;23.48;23.12
42511;BME280;28141;51.120;17.114;2022-11-21T03:14:58;100603.20;;;23.55;22.74
42511;BME280;28141;51.120;17.114;2022-11-21T03:18:02;100603.89;;;23.51;23.33
42511;BME280;28141;51.120;17.114;2022-11-21T03:21:06;100593.22;;;23.54;23.20
42511;BME280;28141;51.120;17.114;2022-11-21T03:24:09;100600.21;;;23.57;23.17
42511;BME280;28141;51.120;17.114;2022-11-21T03:27:13;100589.01;;;23.52;23.10
42511;BME280;28141;51.120;17.114;2022-11-21T03:30:17;100585.16;;;23.53;23.14
42511;BME280;28141;51.120;17.114;2022-11-21T03:33:20;100579.28;;;23.61;23.40
42511;BME280;28141;51.120;17.114;2022-11-21T03:36:23;100572.30;;;23.58;23.33
42511;BME280;28141;51.120;17.114;2022-11-21T03:39:28;100565.46;;;23.61;23.11
42511;BME280;28141;51.120;17.114;2022-11-21T03:42:32;100560.20;;;23.71;23.48
42511;BME280;28141;51.120;17.114;2022-11-21T03:45:35;100550.21;;;23.70;23.58
42511;BME280;28141;51.120;17.114;2022-11-21T03:48:38;100532.80;;;23.81;23.05
42511;BME280;28141;51.120;17.114;2022-11-21T03:51:43;100531.24;;;23.85;23.29
42511;BME280;28141;51.120;17.114;2022-11-21T03:54:47;100530.54;;;23.90;23.15
42511;BME280;28141;51.120;17.114;2022-11-21T03:58:17;100533.54;;;23.88;23.09
42511;BME280;28141;51.120;17.114;2022-11-21T04:01:21;100516.95;;;23.88;23.02
42511;BME280;28141;51.120;17.114;2022-11-21T04:04:24;100508.98;;;23.92;23.50
42511;BME280;28141;51.120;17.114;2022-11-21T04:07:28;100512.96;;;23.96;23.22
42511;BME280;28141;51.120;17.114;2022-11-21T04:10:32;100502.98;;;23.95;23.41
42511;BME280;28141;51.120;17.114;2022-11-21T04:13:35;100512.96;;;23.96;23.22
42511;BME280;28141;51.120;17.114;2022-11-21T04:16:39;100507.20;;;23.97;23.18
42511;BME280;28141;51.120;17.114;2022-11-21T04:19:42;100509.50;;;24.00;23.08
42511;BME280;28141;51.120;17.114;2022-11-21T04:22:45;100507.91;;;24.05;22.86
42511;BME280;28141;51.120;17.114;2022-11-21T04:25:49;100496.97;;;24.10;23.14
42511;BME280;28141;51.120;17.114;2022-11-21T04:28:52;100496.97;;;24.10;22.89
42511;BME280;28141;51.120;17.114;2022-11-21T04:31:55;100486.52;;;24.12;22.92
42511;BME280;28141;51.120;17.114;2022-11-21T04:34:58;100482.91;;;24.11;23.00
42511;BME280;28141;51.120;17.114;2022-11-21T04:38:02;100479.02;;;24.12;22.99
42511;BME280;28141;51.120;17.114;2022-11-21T04:41:05;100460.27;;;24.14;22.98
42511;BME280;28141;51.120;17.114;2022-11-21T04:44:09;100457.26;;;24.16;23.02
42511;BME280;28141;51.120;17.114;2022-11-21T04:47:12;100452.56;;;24.16;22.95
42511;BME280;28141;51.120;17.114;2022-11-21T04:50:17;100441.49;;;24.16;22.99
42511;BME280;28141;51.120;17.114;2022-11-21T04:53:47;100447.88;;;24.17;22.93
42511;BME280;28141;51.120;17.114;2022-11-21T04:56:50;100440.05;;;24.14;22.82
42511;BME280;28141;51.120;17.114;2022-11-21T04:59:54;100438.48;;;24.18;22.82
42511;BME280;28141;51.120;17.114;2022-11-21T05:03:02;100440.17;;;24.19;22.77
42511;BME280;28141;51.120;17.114;2022-11-21T05:06:07;100447.39;;;24.20;22.92
42511;BME280;28141;51.120;17.114;2022-11-21T05:09:10;100442.50;;;24.22;22.81
42511;BME280;28141;51.120;17.114;2022-11-21T05:12:13;100434.52;;;24.25;23.14
42511;BME280;28141;51.120;17.114;2022-11-21T05:15:29;100429.95;;;24.19;23.04
42511;BME280;28141;51.120;17.114;2022-11-21T05:18:32;100420.45;;;24.27;22.89
42511;BME280;28141;51.120;17.114;2022-11-21T05:21:36;100423.34;;;24.32;22.74
42511;BME280;28141;51.120;17.114;2022-11-21T05:25:06;100423.91;;;24.34;22.83
42511;BME280;28141;51.120;17.114;2022-11-21T05:28:10;100414.27;;;24.36;22.76
42511;BME280;28141;51.120;17.114;2022-11-21T05:31:13;100401.88;;;24.39;22.51
42511;BME280;28141;51.120;17.114;2022-11-21T05:34:16;100407.41;;;24.39;22.72
42511;BME280;28141;51.120;17.114;2022-11-21T05:37:20;100404.90;;;24.37;23.02
42511;BME280;28141;51.120;17.114;2022-11-21T05:40:24;100396.70;;;24.43;22.76
42511;BME280;28141;51.120;17.114;2022-11-21T05:43:28;100383.19;;;24.46;22.61
42511;BME280;28141;51.120;17.114;2022-11-21T05:46:43;100379.98;;;24.37;22.94
42511;BME280;28141;51.120;17.114;2022-11-21T05:49:47;100374.31;;;24.44;22.63
42511;BME280;28141;51.120;17.114;2022-11-21T05:52:50;100362.48;;;24.49;22.55
42511;BME280;28141;51.120;17.114;2022-11-21T05:55:54;100361.39;;;24.50;22.67
42511;BME280;28141;51.120;17.114;2022-11-21T05:59:27;100368.38;;;24.52;22.68
42511;BME280;28141;51.120;17.114;2022-11-21T06:02:30;100368.13;;;24.54;22.58
42511;BME280;28141;51.120;17.114;2022-11-21T06:05:46;100363.24;;;24.44;22.66
42511;BME280;28141;51.120;17.114;2022-11-21T06:08:49;100355.62;;;24.51;22.53
42511;BME280;28141;51.120;17.114;2022-11-21T06:11:52;100357.62;;;24.56;22.71
42511;BME280;28141;51.120;17.114;2022-11-21T06:14:56;100355.45;;;24.58;22.49
42511;BME280;28141;51.120;17.114;2022-11-21T06:17:59;100348.34;;;24.62;22.50
42511;BME280;28141;51.120;17.114;2022-11-21T06:21:07;100343.04;;;24.60;22.43
42511;BME280;28141;51.120;17.114;2022-11-21T06:24:37;100350.52;;;24.60;22.62
42511;BME280;28141;51.120;17.114;2022-11-21T06:27:41;100342.45;;;24.58;22.63
42511;BME280;28141;51.120;17.114;2022-11-21T06:30:44;100339.69;;;24.58;22.53
42511;BME280;28141;51.120;17.114;2022-11-21T06:33:54;100330.88;;;24.61;22.67
42511;BME280;28141;51.120;17.114;2022-11-21T06:36:58;100330.88;;;24.61;22.90
42511;BME280;28141;51.120;17.114;2022-11-21T06:40:02;100342.05;;;24.66;22.82
42511;BME280;28141;51.120;17.114;2022-11-21T06:43:05;100343.48;;;24.69;22.90
42511;BME280;28141;51.120;17.114;2022-11-21T06:46:09;100343.84;;;24.72;22.96
42511;BME280;28141;51.120;17.114;2022-11-21T06:49:13;100338.37;;;24.78;23.03
42511;BME280;28141;51.120;17.114;2022-11-21T06:52:45;100340.57;;;24.76;23.05
42511;BME280;28141;51.120;17.114;2022-11-21T06:55:49;100338.29;;;24.72;23.24
42511;BME280;28141;51.120;17.114;2022-11-21T06:58:53;100333.35;;;24.74;23.13
42511;BME280;28141;51.120;17.114;2022-11-21T07:01:57;100340.05;;;24.79;23.03
42511;BME280;28141;51.120;17.114;2022-11-21T07:05:00;100341.73;;;24.80;23.22
42511;BME280;28141;51.120;17.114;2022-11-21T07:08:04;100337.39;;;24.84;23.19
42511;BME280;28141;51.120;17.114;2022-11-21T07:11:09;100338.55;;;24.88;23.31
42511;BME280;28141;51.120;17.114;2022-11-21T07:14:13;100332.51;;;24.91;23.32
42511;BME280;28141;51.120;17.114;2022-11-21T07:17:17;100341.45;;;24.93;23.43
42511;BME280;28141;51.120;17.114;2022-11-21T07:20:20;100340.43;;;24.99;23.82
42511;BME280;28141;51.120;17.114;2022-11-21T07:23:24;100337.66;;;24.99;23.23
42511;BME280;28141;51.120;17.114;2022-11-21T07:26:52;100334.39;;;25.02;23.87
42511;BME280;28141;51.120;17.114;2022-11-21T07:29:55;100343.41;;;25.09;24.02
42511;BME280;28141;51.120;17.114;2022-11-21T07:33:05;100335.16;;;25.14;23.91
42511;BME280;28141;51.120;17.114;2022-11-21T07:36:11;100330.80;;;25.18;24.09
42511;BME280;28141;51.120;17.114;2022-11-21T07:39:15;100333.63;;;25.23;24.10
42511;BME280;28141;51.120;17.114;2022-11-21T07:42:18;100322.64;;;25.28;23.52
42511;BME280;28141;51.120;17.114;2022-11-21T07:45:22;100329.87;;;25.29;24.07
42511;BME280;28141;51.120;17.114;2022-11-21T07:48:25;100338.49;;;25.33;23.68
42511;BME280;28141;51.120;17.114;2022-11-21T07:51:28;100328.34;;;25.38;23.58
42511;BME280;28141;51.120;17.114;2022-11-21T07:54:32;100326.66;;;25.37;23.75
42511;BME280;28141;51.120;17.114;2022-11-21T07:58:06;100335.04;;;25.42;23.48
42511;BME280;28141;51.120;17.114;2022-11-21T08:01:10;100325.13;;;25.46;23.63
42511;BME280;28141;51.120;17.114;2022-11-21T08:04:13;100323.45;;;25.45;23.56
42511;BME280;28141;51.120;17.114;2022-11-21T08:07:18;100320.52;;;25.52;24.00
42511;BME280;28141;51.120;17.114;2022-11-21T08:10:22;100324.77;;;25.60;23.78
42511;BME280;28141;51.120;17.114;2022-11-21T08:13:28;100315.70;;;25.64;23.78
42511;BME280;28141;51.120;17.114;2022-11-21T08:16:31;100319.99;;;25.72;24.16
42511;BME280;28141;51.120;17.114;2022-11-21T08:19:38;100320.58;;;25.74;24.04
42511;BME280;28141;51.120;17.114;2022-11-21T08:23:07;100325.59;;;25.77;23.92
42511;BME280;28141;51.120;17.114;2022-11-21T08:26:12;100316.31;;;25.88;24.27
42511;BME280;28141;51.120;17.114;2022-11-21T08:29:16;100323.54;;;25.89;23.92
42511;BME280;28141;51.120;17.114;2022-11-21T08:32:19;100322.78;;;25.94;24.01
42511;BME280;28141;51.120;17.114;2022-11-21T08:35:23;100322.83;;;25.99;24.00
42511;BME280;28141;51.120;17.114;2022-11-21T08:38:27;100327.02;;;26.01;23.75
42511;BME280;28141;51.120;17.114;2022-11-21T08:41:30;100320.97;;;26.04;24.11
42511;BME280;28141;51.120;17.114;2022-11-21T08:45:10;100335.87;;;25.98;24.02
42511;BME280;28141;51.120;17.114;2022-11-21T08:48:14;100321.02;;;26.09;24.04
42511;BME280;28141;51.120;17.114;2022-11-21T08:51:17;100330.26;;;26.15;23.94
42511;BME280;28141;51.120;17.114;2022-11-21T08:54:22;100324.75;;;26.20;23.87
42511;BME280;28141;51.120;17.114;2022-11-21T08:57:26;100320.96;;;26.26;23.78
42511;BME280;28141;51.120;17.114;2022-11-21T09:00:29;100321.21;;;26.25;23.99
42511;BME280;28141;51.120;17.114;2022-11-21T09:03:33;100326.50;;;26.26;24.08
42511;BME280;28141;51.120;17.114;2022-11-21T09:06:37;100327.93;;;26.29;24.28
42511;BME280;28141;51.120;17.114;2022-11-21T09:09:40;100334.66;;;26.33;23.78
42511;BME280;28141;51.120;17.114;2022-11-21T09:13:09;100335.83;;;26.37;24.20
42511;BME280;28141;51.120;17.114;2022-11-21T09:16:12;100329.73;;;26.40;24.24
42511;BME280;28141;51.120;17.114;2022-11-21T09:19:28;100330.27;;;26.37;24.63
42511;BME280;28141;51.120;17.114;2022-11-21T09:22:32;100330.89;;;26.44;24.54
42511;BME280;28141;51.120;17.114;2022-11-21T09:25:35;100329.29;;;26.48;24.27
42511;BME280;28141;51.120;17.114;2022-11-21T09:28:40;100334.59;;;26.49;23.99
42511;BME280;28141;51.120;17.114;2022-11-21T09:31:43;100330.41;;;26.52;23.78
42511;BME280;28141;51.120;17.114;2022-11-21T09:35:11;100340.70;;;26.51;23.89
42511;BME280;28141;51.120;17.114;2022-11-21T09:38:15;100334.88;;;26.53;23.67
42511;BME280;28141;51.120;17.114;2022-11-21T09:41:31;100331.00;;;26.54;23.85
42511;BME280;28141;51.120;17.114;2022-11-21T09:45:10;100335.94;;;26.47;23.96
42511;BME280;28141;51.120;17.114;2022-11-21T09:48:35;100324.28;;;26.50;24.01
42511;BME280;28141;51.120;17.114;2022-11-21T09:51:43;100329.64;;;26.57;24.20
42511;BME280;28141;51.120;17.114;2022-11-21T09:54:55;100326.06;;;26.61;24.06
42511;BME280;28141;51.120;17.114;2022-11-21T09:58:04;100330.52;;;26.62;24.03
42511;BME280;28141;51.120;17.114;2022-11-21T10:01:13;100343.90;;;26.65;23.99
42511;BME280;28141;51.120;17.114;2022-11-21T10:04:41;100335.04;;;26.68;24.32
42511;BME280;28141;51.120;17.114;2022-11-21T10:07:46;100339.55;;;26.74;24.38
42511;BME280;28141;51.120;17.114;2022-11-21T10:10:55;100341.28;;;26.80;24.61
42511;BME280;28141;51.120;17.114;2022-11-21T10:17:45;100325.38;;;26.76;24.67
42511;BME280;28141;51.120;17.114;2022-11-21T10:24:24;100323.23;;;26.83;24.83
42511;BME280;28141;51.120;17.114;2022-11-21T10:27:34;100321.70;;;26.92;24.82
42511;BME280;28141;51.120;17.114;2022-11-21T10:30:42;100313.12;;;26.99;24.52
42511;BME280;28141;51.120;17.114;2022-11-21T10:34:19;100307.62;;;27.04;25.03
42511;BME280;28141;51.120;17.114;2022-11-21T10:37:36;100308.16;;;27.06;25.12
42511;BME280;28141;51.120;17.114;2022-11-21T10:40:44;100312.10;;;27.10;25.00
42511;BME280;28141;51.120;17.114;2022-11-21T10:47:40;100317.69;;;27.15;25.11
42511;BME280;28141;51.120;17.114;2022-11-21T10:54:06;100320.78;;;27.18;25.57
42511;BME280;28141;51.120;17.114;2022-11-21T10:57:21;100316.33;;;27.17;25.27
42511;BME280;28141;51.120;17.114;2022-11-21T11:00:57;100312.77;;;27.27;25.19
42511;BME280;28141;51.120;17.114;2022-11-21T11:07:23;100314.52;;;27.38;24.78
42511;BME280;28141;51.120;17.114;2022-11-21T11:10:27;100309.52;;;27.35;25.47
42511;BME280;28141;51.120;17.114;2022-11-21T11:13:53;100322.09;;;27.43;25.46
42511;BME280;28141;51.120;17.114;2022-11-21T11:16:45;100319.61;;;27.46;25.03
42511;BME280;28141;51.120;17.114;2022-11-21T11:23:30;100321.19;;;27.37;25.51
42511;BME280;28141;51.120;17.114;2022-11-21T11:29:50;100324.87;;;27.48;25.26
42511;BME280;28141;51.120;17.114;2022-11-21T11:32:54;100329.16;;;27.55;25.03
42511;BME280;28141;51.120;17.114;2022-11-21T11:43:04;100330.83;;;27.56;25.02
42511;BME280;28141;51.120;17.114;2022-11-21T11:50:17;100332.88;;;27.39;25.43
42511;BME280;28141;51.120;17.114;2022-11-21T11:53:28;100336.84;;;27.48;25.37
42511;BME280;28141;51.120;17.114;2022-11-21T11:56:36;100336.31;;;27.51;25.32
42511;BME280;28141;51.120;17.114;2022-11-21T11:59:44;100335.30;;;27.57;25.52
42511;BME280;28141;51.120;17.114;2022-11-21T12:09:58;100336.56;;;27.45;25.44
42511;BME280;28141;51.120;17.114;2022-11-21T12:13:12;100345.19;;;27.48;25.77
42511;BME280;28141;51.120;17.114;2022-11-21T12:16:19;100353.25;;;27.45;25.44
42511;BME280;28141;51.120;17.114;2022-11-21T12:19:53;100356.32;;;27.48;25.56
42511;BME280;28141;51.120;17.114;2022-11-21T12:22:59;100369.13;;;27.49;25.54
42511;BME280;28141;51.120;17.114;2022-11-21T12:36:37;100404.34;;;27.34;25.20
42511;BME280;28141;51.120;17.114;2022-11-21T12:53:26;100422.15;;;27.06;25.99
42511;BME280;28141;51.120;17.114;2022-11-21T12:57:13;100418.48;;;27.00;26.07
42511;BME280;28141;51.120;17.114;2022-11-21T13:03:50;100421.62;;;27.09;26.12
42511;BME280;28141;51.120;17.114;2022-11-21T13:06:56;100427.77;;;27.11;25.81
42511;BME280;28141;51.120;17.114;2022-11-21T13:10:02;100438.72;;;26.96;25.79
42511;BME280;28141;51.120;17.114;2022-11-21T13:13:35;100447.75;;;27.08;25.73
42511;BME280;28141;51.120;17.114;2022-11-21T13:16:47;100439.63;;;27.01;25.38
42511;BME280;28141;51.120;17.114;2022-11-21T13:20:00;100446.80;;;26.97;25.61
42511;BME280;28141;51.120;17.114;2022-11-21T13:30:16;100461.41;;;26.87;25.82
42511;BME280;28141;51.120;17.114;2022-11-21T13:36:37;100465.16;;;26.76;25.90
42511;BME280;28141;51.120;17.114;2022-11-21T13:39:41;100463.48;;;26.75;26.02
42511;BME280;28141;51.120;17.114;2022-11-21T14:00:09;100483.65;;;26.66;25.80
42511;BME280;28141;51.120;17.114;2022-11-21T14:03:25;100485.00;;;26.63;25.93
42511;BME280;28141;51.120;17.114;2022-11-21T14:06:33;100493.29;;;26.58;25.93
42511;BME280;28141;51.120;17.114;2022-11-21T14:09:48;100495.98;;;26.53;26.04
42511;BME280;28141;51.120;17.114;2022-11-21T14:16:36;100503.22;;;26.54;25.83
42511;BME280;28141;51.120;17.114;2022-11-21T14:19:44;100509.28;;;26.51;25.50
42511;BME280;28141;51.120;17.114;2022-11-21T14:26:39;100512.52;;;26.43;25.95
42511;BME280;28141;51.120;17.114;2022-11-21T14:29:44;100515.99;;;26.33;25.99
42511;BME280;28141;51.120;17.114;2022-11-21T14:32:47;100521.23;;;26.51;26.06
42511;BME280;28141;51.120;17.114;2022-11-21T14:39:07;100522.30;;;26.29;25.99
42511;BME280;28141;51.120;17.114;2022-11-21T14:42:14;100532.99;;;26.37;26.21
42511;BME280;28141;51.120;17.114;2022-11-21T14:45:48;100540.93;;;26.28;25.93
42511;BME280;28141;51.120;17.114;2022-11-21T14:50:40;100536.54;;;26.15;25.81
42511;BME280;28141;51.120;17.114;2022-11-21T14:53:44;100540.00;;;26.06;25.81
42511;BME280;28141;51.120;17.114;2022-11-21T14:56:58;100548.57;;;26.04;26.08
42511;BME280;28141;51.120;17.114;2022-11-21T15:00:05;100542.16;;;25.87;25.97
42511;BME280;28141;51.120;17.114;2022-11-21T15:03:23;100551.76;;;25.79;25.99
42511;BME280;28141;51.120;17.114;2022-11-21T15:06:52;100549.34;;;25.55;25.92
42511;BME280;28141;51.120;17.114;2022-11-21T15:09:56;100538.77;;;25.52;25.75
42511;BME280;28141;51.120;17.114;2022-11-21T15:13:11;100543.96;;;25.48;25.71
42511;BME280;28141;51.120;17.114;2022-11-21T15:16:18;100544.61;;;25.38;25.82
42511;BME280;28141;51.120;17.114;2022-11-21T15:19:27;100546.55;;;25.38;25.85
42511;BME280;28141;51.120;17.114;2022-11-21T15:22:37;100548.77;;;25.24;25.70
42511;BME280;28141;51.120;17.114;2022-11-21T15:29:22;100564.92;;;25.27;25.61
42511;BME280;28141;51.120;17.114;2022-11-21T15:32:26;100572.98;;;25.29;25.56
42511;BME280;28141;51.120;17.114;2022-11-21T15:38:49;100567.09;;;24.97;25.74
42511;BME280;28141;51.120;17.114;2022-11-21T15:42:35;100579.25;;;24.96;25.70
42511;BME280;28141;51.120;17.114;2022-11-21T15:45:39;100567.09;;;24.97;25.82
42511;BME280;28141;51.120;17.114;2022-11-21T15:48:48;100573.09;;;24.82;25.94
42511;BME280;28141;51.120;17.114;2022-11-21T15:51:53;100578.01;;;24.92;25.79
42511;BME280;28141;51.120;17.114;2022-11-21T15:54:57;100584.80;;;24.72;25.92
42511;BME280;28141;51.120;17.114;2022-11-21T15:58:00;100582.35;;;24.88;25.66
42511;BME280;28141;51.120;17.114;2022-11-21T16:01:29;100586.33;;;24.92;25.49
42511;BME280;28141;51.120;17.114;2022-11-21T16:04:34;100583.80;;;25.02;25.27
42511;BME280;28141;51.120;17.114;2022-11-21T16:07:38;100578.01;;;24.92;25.34
42511;BME280;28141;51.120;17.114;2022-11-21T16:10:42;100578.16;;;24.85;25.21
42511;BME280;28141;51.120;17.114;2022-11-21T16:13:56;100573.70;;;24.84;25.14
42511;BME280;28141;51.120;17.114;2022-11-21T16:17:00;100580.50;;;24.65;25.04
42511;BME280;28141;51.120;17.114;2022-11-21T16:20:05;100589.66;;;24.42;25.33
42511;BME280;28141;51.120;17.114;2022-11-21T16:23:34;100588.30;;;24.45;25.29
42511;BME280;28141;51.120;17.114;2022-11-21T16:26:37;100586.28;;;24.40;25.39
42511;BME280;28141;51.120;17.114;2022-11-21T16:29:41;100577.23;;;24.56;25.23
42511;BME280;28141;51.120;17.114;2022-11-21T16:32:44;100581.81;;;24.62;25.44
42511;BME280;28141;51.120;17.114;2022-11-21T16:35:48;100573.25;;;24.76;24.89
42511;BME280;28141;51.120;17.114;2022-11-21T16:38:58;100563.23;;;24.86;24.90
42511;BME280;28141;51.120;17.114;2022-11-21T16:42:03;100579.84;;;24.86;24.89
42511;BME280;28141;51.120;17.114;2022-11-21T16:45:08;100572.98;;;24.77;24.92
42511;BME280;28141;51.120;17.114;2022-11-21T16:48:36;100567.82;;;24.69;24.94
42511;BME280;28141;51.120;17.114;2022-11-21T16:51:39;100580.95;;;24.73;25.23
42511;BME280;28141;51.120;17.114;2022-11-21T16:54:43;100581.91;;;24.67;24.97
42511;BME280;28141;51.120;17.114;2022-11-21T16:57:46;100578.78;;;24.76;24.88
42511;BME280;28141;51.120;17.114;2022-11-21T17:00:50;100583.19;;;24.88;24.71
42511;BME280;28141;51.120;17.114;2022-11-21T17:03:53;100583.70;;;24.85;24.83
42511;BME280;28141;51.120;17.114;2022-11-21T17:06:56;100587.10;;;24.76;24.89
42511;BME280;28141;51.120;17.114;2022-11-21T17:10:00;100575.99;;;24.87;24.77
42511;BME280;28141;51.120;17.114;2022-11-21T17:13:03;100579.36;;;24.78;24.70
42511;BME280;28141;51.120;17.114;2022-11-21T17:16:32;100585.64;;;24.73;24.84
42511;BME280;28141;51.120;17.114;2022-11-21T17:19:37;100593.22;;;24.78;24.75
42511;BME280;28141;51.120;17.114;2022-11-21T17:22:40;100597.64;;;24.90;24.65
42511;BME280;28141;51.120;17.114;2022-11-21T17:25:44;100605.51;;;24.93;24.52
42511;BME280;28141;51.120;17.114;2022-11-21T17:28:54;100588.65;;;24.95;24.49
42511;BME280;28141;51.120;17.114;2022-11-21T17:31:58;100589.82;;;24.99;24.81
42511;BME280;28141;51.120;17.114;2022-11-21T17:35:01;100587.90;;;24.99;24.68
42511;BME280;28141;51.120;17.114;2022-11-21T17:38:05;100595.85;;;25.07;24.61
42511;BME280;28141;51.120;17.114;2022-11-21T17:41:33;100605.48;;;25.05;24.55
42511;BME280;28141;51.120;17.114;2022-11-21T17:44:36;100598.26;;;25.04;24.56
42511;BME280;28141;51.120;17.114;2022-11-21T17:47:39;100600.80;;;25.05;24.77
42511;BME280;28141;51.120;17.114;2022-11-21T17:50:45;100598.65;;;24.96;24.67
42511;BME280;28141;51.120;17.114;2022-11-21T17:53:50;100594.88;;;25.02;24.50
42511;BME280;28141;51.120;17.114;2022-11-21T17:56:53;100602.74;;;24.93;24.79
42511;BME280;28141;51.120;17.114;2022-11-21T17:59:57;100615.03;;;24.97;24.90
42511;BME280;28141;51.120;17.114;2022-11-21T18:03:00;100621.88;;;25.06;24.59
42511;BME280;28141;51.120;17.114;2022-11-21T18:06:35;100619.74;;;24.97;24.70
42511;BME280;28141;51.120;17.114;2022-11-21T18:09:39;100621.52;;;25.03;24.61
42511;BME280;28141;51.120;17.114;2022-11-21T18:12:42;100619.74;;;24.97;24.72